createdAt,value
2023-02-22T00:00:27.976Z,7.10
2023-02-22T00:02:59.736Z,7.10
2023-02-22T00:05:27.590Z,7.10
2023-02-22T00:07:56.832Z,7.10
2023-02-22T00:10:24.484Z,7.10
2023-02-22T00:12:52.510Z,7.10
2023-02-22T00:15:23.351Z,7.10
2023-02-22T00:17:49.871Z,7.10
2023-02-22T00:20:19.918Z,7.10
2023-02-22T00:22:47.680Z,7.10
2023-02-22T00:25:15.127Z,7.10
2023-02-22T00:27:41.754Z,7.20
2023-02-22T00:30:09.476Z,7.20
2023-02-22T00:32:36.103Z,7.20
2023-02-22T00:35:05.473Z,7.20
2023-02-22T00:37:32.014Z,7.20
2023-02-22T00:39:58.535Z,7.10
2023-02-22T00:42:25.099Z,7.10
2023-02-22T00:44:51.586Z,7.10
2023-02-22T00:47:18.117Z,7.10
2023-02-22T00:49:44.661Z,7.10
2023-02-22T00:52:11.159Z,7.10
2023-02-22T00:54:37.775Z,7.00
2023-02-22T00:57:04.586Z,7.00
2023-02-22T00:59:31.098Z,7.00
2023-02-22T01:01:58.530Z,7.00
2023-02-22T01:04:25.308Z,7.00
2023-02-22T01:06:52.015Z,7.00
2023-02-22T01:09:18.644Z,7.00
2023-02-22T01:11:45.343Z,7.00
2023-02-22T01:14:11.849Z,7.00
2023-02-22T01:16:38.577Z,7.00
2023-02-22T01:19:06.214Z,7.00
2023-02-22T01:21:32.726Z,7.00
2023-02-22T01:23:59.222Z,7.00
2023-02-22T01:26:25.744Z,7.00
2023-02-22T01:28:52.249Z,7.00
2023-02-22T01:31:19.127Z,7.00
2023-02-22T01:33:45.840Z,7.00
2023-02-22T01:36:12.331Z,7.00
2023-02-22T01:38:39.244Z,7.00
2023-02-22T01:41:05.905Z,7.00
2023-02-22T01:43:32.712Z,7.00
2023-02-22T01:46:08.210Z,7.10
2023-02-22T01:48:42.253Z,7.10
2023-02-22T01:51:17.038Z,7.10
2023-02-22T01:53:47.301Z,7.10
2023-02-22T01:56:14.156Z,7.10
2023-02-22T01:58:43.004Z,7.10
2023-02-22T02:01:09.639Z,7.10
2023-02-22T02:03:38.474Z,7.10
2023-02-22T02:06:07.883Z,7.10
2023-02-22T02:08:55.027Z,7.10
2023-02-22T02:11:25.344Z,7.10
2023-02-22T02:13:55.046Z,7.10
2023-02-22T02:16:23.292Z,7.10
2023-02-22T02:18:50.121Z,7.20
2023-02-22T02:21:35.153Z,7.20
2023-02-22T02:24:10.774Z,7.20
2023-02-22T02:26:46.421Z,7.20
2023-02-22T02:29:35.275Z,7.20
2023-02-22T02:32:09.236Z,7.20
2023-02-22T02:34:40.595Z,7.20
2023-02-22T02:37:16.378Z,7.20
2023-02-22T02:40:01.630Z,7.20
2023-02-22T02:42:33.593Z,7.20
2023-02-22T02:45:03.192Z,7.20
2023-02-22T02:47:35.910Z,7.10
2023-02-22T02:50:14.024Z,7.20
2023-02-22T02:52:40.996Z,7.20
2023-02-22T02:55:08.174Z,7.20
2023-02-22T02:57:34.708Z,7.20
2023-02-22T03:00:01.226Z,7.10
2023-02-22T03:02:30.609Z,7.20
2023-02-22T03:05:00.075Z,7.10
2023-02-22T03:07:39.115Z,7.20
2023-02-22T03:10:15.242Z,7.20
2023-02-22T03:12:41.697Z,7.10
2023-02-22T03:15:15.789Z,7.20
2023-02-22T03:17:58.053Z,7.10
2023-02-22T03:20:31.673Z,7.10
2023-02-22T03:22:58.313Z,7.00
2023-02-22T03:25:30.423Z,7.10
2023-02-22T03:28:02.816Z,7.00
2023-02-22T03:30:35.996Z,7.00
2023-02-22T03:33:09.022Z,7.00
2023-02-22T03:35:38.089Z,7.00
2023-02-22T03:38:06.857Z,7.00
2023-02-22T03:40:36.040Z,7.10
2023-02-22T03:43:06.756Z,7.00
2023-02-22T03:45:34.207Z,7.00
2023-02-22T03:48:04.728Z,7.00
2023-02-22T03:50:35.495Z,7.00
2023-02-22T03:53:02.381Z,7.00
2023-02-22T03:55:29.030Z,7.00
2023-02-22T03:57:57.724Z,7.00
2023-02-22T04:00:26.198Z,7.00
2023-02-22T04:02:53.045Z,7.00
2023-02-22T04:05:19.876Z,7.00
2023-02-22T04:07:46.415Z,7.00
2023-02-22T04:10:13.542Z,7.00
2023-02-22T04:12:40.044Z,7.00
2023-02-22T04:15:07.999Z,7.00
2023-02-22T04:17:34.592Z,7.00
2023-02-22T04:20:01.095Z,7.00
2023-02-22T04:22:27.596Z,7.00
2023-02-22T04:24:54.107Z,7.00
2023-02-22T04:27:20.644Z,7.00
2023-02-22T04:29:47.211Z,7.00
2023-02-22T04:32:13.733Z,7.00
2023-02-22T04:34:40.275Z,7.00
2023-02-22T04:37:07.626Z,7.00
2023-02-22T04:39:34.223Z,6.90
2023-02-22T04:42:00.748Z,7.00
2023-02-22T04:44:27.256Z,7.00
2023-02-22T04:46:53.745Z,7.00
2023-02-22T04:49:20.226Z,7.00
2023-02-22T04:51:46.828Z,7.00
2023-02-22T04:54:13.670Z,6.90
2023-02-22T04:56:40.252Z,6.90
2023-02-22T04:59:06.795Z,6.90
2023-02-22T05:01:34.074Z,7.00
2023-02-22T05:04:02.004Z,7.00
2023-02-22T05:06:28.506Z,7.00
2023-02-22T05:08:54.985Z,7.00
2023-02-22T05:11:22.211Z,7.00
2023-02-22T05:13:48.778Z,6.90
2023-02-22T05:16:15.863Z,6.90
2023-02-22T05:18:42.568Z,6.90
2023-02-22T05:21:09.363Z,6.90
2023-02-22T05:23:35.893Z,6.90
2023-02-22T05:26:02.383Z,6.90
2023-02-22T05:28:28.935Z,6.90
2023-02-22T05:30:55.491Z,6.90
2023-02-22T05:33:22.061Z,6.90
2023-02-22T05:35:48.679Z,6.90
2023-02-22T05:38:15.418Z,6.90
2023-02-22T05:40:42.667Z,6.90
2023-02-22T05:43:09.496Z,6.90
2023-02-22T05:45:39.010Z,6.90
2023-02-22T05:48:05.664Z,6.90
2023-02-22T05:50:33.182Z,7.00
2023-02-22T05:52:59.816Z,7.10
2023-02-22T05:55:26.517Z,7.00
2023-02-22T05:57:53.073Z,7.00
2023-02-22T06:00:27.271Z,7.00
2023-02-22T06:02:54.731Z,6.90
2023-02-22T06:05:21.338Z,7.00
2023-02-22T06:07:47.845Z,7.00
2023-02-22T06:10:14.412Z,7.00
2023-02-22T06:12:41.581Z,6.90
2023-02-22T06:15:08.196Z,7.00
2023-02-22T06:17:34.697Z,6.90
2023-02-22T06:20:01.422Z,6.90
2023-02-22T06:22:28.203Z,6.90
2023-02-22T06:24:55.153Z,6.90
2023-02-22T06:27:21.693Z,6.90
2023-02-22T06:29:48.234Z,7.00
2023-02-22T06:32:15.144Z,7.00
2023-02-22T06:34:41.790Z,7.00
2023-02-22T06:37:08.455Z,7.00
2023-02-22T06:39:34.991Z,7.00
2023-02-22T06:42:01.528Z,7.10
2023-02-22T06:44:28.042Z,7.10
2023-02-22T06:46:54.598Z,7.10
2023-02-22T06:49:21.186Z,7.20
2023-02-22T06:51:47.836Z,7.20
2023-02-22T06:54:14.698Z,7.20
2023-02-22T06:56:41.301Z,7.20
2023-02-22T06:59:08.391Z,7.30
2023-02-22T07:01:35.314Z,7.30
2023-02-22T07:04:03.964Z,7.30
2023-02-22T07:06:30.480Z,7.30
2023-02-22T07:08:57.023Z,7.40
2023-02-22T07:11:23.611Z,7.40
2023-02-22T07:13:50.199Z,7.40
2023-02-22T07:16:16.788Z,7.40
2023-02-22T07:18:43.370Z,7.50
2023-02-22T07:21:10.639Z,7.50
2023-02-22T07:23:37.168Z,7.50
2023-02-22T07:26:05.231Z,7.60
2023-02-22T07:28:31.736Z,7.60
2023-02-22T07:30:58.855Z,7.70
2023-02-22T07:33:25.579Z,7.70
2023-02-22T07:35:52.178Z,7.70
2023-02-22T07:38:20.277Z,7.80
2023-02-22T07:40:47.203Z,7.80
2023-02-22T07:43:15.391Z,7.80
2023-02-22T07:45:41.919Z,7.80
2023-02-22T07:48:09.010Z,7.90
2023-02-22T07:50:35.566Z,7.90
2023-02-22T07:53:03.639Z,8.00
2023-02-22T07:55:31.184Z,8.00
2023-02-22T07:57:59.324Z,8.00
2023-02-22T08:00:33.353Z,8.00
2023-02-22T08:03:01.215Z,8.10
2023-02-22T08:05:28.890Z,8.10
2023-02-22T08:07:56.044Z,8.10
2023-02-22T08:10:23.967Z,8.30
2023-02-22T08:12:50.739Z,8.20
2023-02-22T08:15:25.035Z,8.20
2023-02-22T08:17:51.717Z,8.20
2023-02-22T08:20:19.243Z,8.30
2023-02-22T08:22:46.352Z,8.30
2023-02-22T08:25:13.733Z,8.30
2023-02-22T08:27:40.228Z,8.30
2023-02-22T08:30:07.674Z,8.30
2023-02-22T08:32:35.594Z,8.40
2023-02-22T08:35:02.654Z,8.40
2023-02-22T08:37:29.189Z,8.40
2023-02-22T08:39:56.094Z,8.50
2023-02-22T08:42:22.670Z,8.40
2023-02-22T08:44:49.438Z,8.50
2023-02-22T08:47:15.954Z,8.50
2023-02-22T08:49:42.485Z,8.50
2023-02-22T08:52:09.075Z,8.50
2023-02-22T08:54:35.564Z,8.60
2023-02-22T08:57:04.848Z,8.60
2023-02-22T08:59:31.381Z,8.70
2023-02-22T09:01:57.962Z,8.70
2023-02-22T09:04:24.622Z,8.80
2023-02-22T09:06:51.864Z,8.90
2023-02-22T09:09:21.299Z,8.90
2023-02-22T09:11:48.537Z,8.90
2023-02-22T09:14:16.467Z,9.00
2023-02-22T09:16:44.196Z,9.10
2023-02-22T09:19:10.736Z,9.20
2023-02-22T09:21:37.255Z,9.20
2023-02-22T09:24:08.358Z,9.40
2023-02-22T09:26:35.967Z,9.40
2023-02-22T09:29:02.465Z,9.40
2023-02-22T09:31:29.051Z,9.60
2023-02-22T09:33:55.631Z,9.60
2023-02-22T09:36:22.327Z,9.70
2023-02-22T09:38:49.050Z,9.70
2023-02-22T09:41:24.628Z,9.80
2023-02-22T09:44:01.046Z,9.80
2023-02-22T09:46:34.712Z,9.90
2023-02-22T09:49:07.357Z,9.90
2023-02-22T09:51:45.594Z,10.00
2023-02-22T09:54:38.535Z,10.00
2023-02-22T09:57:10.695Z,10.10
2023-02-22T09:59:40.440Z,10.20
2023-02-22T10:02:26.084Z,10.30
2023-02-22T10:04:57.790Z,10.40
2023-02-22T10:07:30.187Z,10.50
2023-02-22T10:09:57.432Z,10.50
2023-02-22T10:12:28.713Z,10.50
2023-02-22T10:15:11.864Z,10.50
2023-02-22T10:17:39.294Z,10.40
2023-02-22T10:20:08.827Z,10.40
2023-02-22T10:22:43.356Z,10.40
2023-02-22T10:25:13.391Z,10.30
2023-02-22T10:27:42.288Z,10.40
2023-02-22T10:30:24.199Z,10.50
2023-02-22T10:32:58.747Z,10.60
2023-02-22T10:35:29.992Z,10.60
2023-02-22T10:37:59.161Z,10.60
2023-02-22T10:40:32.091Z,10.60
2023-02-22T10:43:02.978Z,10.60
2023-02-22T10:45:32.575Z,10.60
2023-02-22T10:48:00.706Z,10.60
2023-02-22T10:50:29.496Z,10.60
2023-02-22T10:52:56.025Z,10.60
2023-02-22T10:55:22.719Z,10.70
2023-02-22T10:57:50.901Z,10.80
2023-02-22T11:00:26.295Z,10.90
2023-02-22T11:02:55.955Z,11.00
2023-02-22T11:05:33.514Z,11.10
2023-02-22T11:08:15.334Z,11.20
2023-02-22T11:10:43.330Z,11.20
2023-02-22T11:13:19.041Z,11.30
2023-02-22T11:15:45.605Z,11.30
2023-02-22T11:18:23.068Z,11.30
2023-02-22T11:20:50.930Z,11.30
2023-02-22T11:23:20.596Z,11.30
2023-02-22T11:25:47.775Z,11.30
2023-02-22T11:28:20.957Z,11.40
2023-02-22T11:30:51.347Z,11.50
2023-02-22T11:33:23.771Z,11.60
2023-02-22T11:35:54.932Z,11.60
2023-02-22T11:38:22.922Z,11.60
2023-02-22T11:41:08.194Z,11.60
2023-02-22T11:43:34.954Z,11.70
2023-02-22T11:46:12.039Z,11.70
2023-02-22T11:48:39.741Z,11.80
2023-02-22T11:51:14.465Z,11.70
2023-02-22T11:53:55.348Z,11.70
2023-02-22T11:56:36.954Z,11.70
2023-02-22T11:59:14.041Z,11.70
2023-02-22T12:02:04.361Z,11.80
2023-02-22T12:04:45.718Z,11.90
2023-02-22T12:07:17.350Z,11.80
2023-02-22T12:09:52.783Z,11.90
2023-02-22T12:12:32.995Z,11.90
2023-02-22T12:15:22.325Z,11.90
2023-02-22T12:18:00.180Z,12.00
2023-02-22T12:20:30.978Z,12.00
2023-02-22T12:23:14.996Z,12.00
2023-02-22T12:25:46.763Z,12.00
2023-02-22T12:28:24.634Z,12.00
2023-02-22T12:31:03.830Z,12.00
2023-02-22T12:33:42.458Z,12.00
2023-02-22T12:36:11.534Z,12.00
2023-02-22T12:38:44.226Z,12.10
2023-02-22T12:41:11.342Z,12.20
2023-02-22T12:43:51.694Z,12.10
2023-02-22T12:46:18.853Z,12.20
2023-02-22T12:49:00.773Z,12.10
2023-02-22T12:51:32.718Z,12.00
2023-02-22T12:54:07.452Z,12.00
2023-02-22T12:56:37.273Z,11.90
2023-02-22T12:59:24.483Z,11.90
2023-02-22T13:01:56.651Z,11.70
2023-02-22T13:04:23.271Z,11.60
2023-02-22T13:06:49.798Z,11.60
2023-02-22T13:09:31.525Z,11.80
2023-02-22T13:12:13.835Z,11.70
2023-02-22T13:14:59.148Z,11.70
2023-02-22T13:17:37.518Z,11.70
2023-02-22T13:20:06.795Z,11.70
2023-02-22T13:22:36.806Z,11.60
2023-02-22T13:25:09.649Z,11.60
2023-02-22T13:27:39.190Z,11.60
2023-02-22T13:30:11.055Z,11.60
2023-02-22T13:32:40.430Z,11.60
2023-02-22T13:35:13.610Z,11.50
2023-02-22T13:37:44.575Z,11.50
2023-02-22T13:40:16.990Z,11.60
2023-02-22T13:42:46.491Z,11.60
2023-02-22T13:45:31.791Z,11.50
2023-02-22T13:48:07.429Z,11.40
2023-02-22T13:50:59.344Z,11.40
2023-02-22T13:53:28.857Z,11.40
2023-02-22T13:55:57.001Z,11.40
2023-02-22T13:58:23.971Z,11.40
2023-02-22T14:00:52.223Z,11.50
2023-02-22T14:03:23.959Z,11.50
2023-02-22T14:05:52.005Z,11.50
2023-02-22T14:08:44.958Z,11.60
2023-02-22T14:11:14.332Z,11.60
2023-02-22T14:14:00.860Z,11.60
2023-02-22T14:16:31.361Z,11.60
2023-02-22T14:19:06.659Z,11.70
2023-02-22T14:21:35.050Z,11.80
2023-02-22T14:24:15.160Z,11.70
2023-02-22T14:26:53.543Z,11.70
2023-02-22T14:29:21.662Z,11.70
2023-02-22T14:31:49.952Z,11.70
2023-02-22T14:34:17.512Z,11.70
2023-02-22T14:37:05.050Z,11.60
2023-02-22T14:39:38.319Z,11.60
2023-02-22T14:42:27.904Z,11.60
2023-02-22T14:45:02.804Z,11.60
2023-02-22T14:47:39.833Z,11.50
2023-02-22T14:50:25.433Z,11.40
2023-02-22T14:53:03.431Z,11.40
2023-02-22T14:55:31.400Z,11.40
2023-02-22T14:58:10.323Z,11.40
2023-02-22T15:00:46.004Z,11.40
2023-02-22T15:03:38.404Z,11.40
2023-02-22T15:06:15.865Z,11.30
2023-02-22T15:08:48.631Z,11.30
2023-02-22T15:11:26.406Z,11.20
2023-02-22T15:13:54.323Z,11.20
2023-02-22T15:16:22.122Z,11.10
2023-02-22T15:18:51.857Z,11.10
2023-02-22T15:21:23.452Z,11.00
2023-02-22T15:23:52.222Z,11.00
2023-02-22T15:26:31.340Z,11.00
2023-02-22T15:28:58.839Z,11.00
2023-02-22T15:31:27.286Z,10.90
2023-02-22T15:33:54.793Z,10.90
2023-02-22T15:36:24.722Z,10.90
2023-02-22T15:38:52.606Z,10.90
2023-02-22T15:41:27.800Z,10.90
2023-02-22T15:44:22.797Z,10.80
2023-02-22T15:46:50.695Z,10.80
2023-02-22T15:49:19.353Z,10.80
2023-02-22T15:51:49.088Z,10.70
2023-02-22T15:54:26.530Z,10.70
2023-02-22T15:56:57.436Z,10.70
2023-02-22T15:59:29.628Z,10.60
2023-02-22T16:01:58.444Z,10.40
2023-02-22T16:04:26.730Z,10.40
2023-02-22T16:07:01.799Z,10.30
2023-02-22T16:09:30.389Z,10.20
2023-02-22T16:12:10.608Z,10.20
2023-02-22T16:14:37.706Z,10.10
2023-02-22T16:17:28.844Z,10.10
2023-02-22T16:19:55.438Z,10.00
2023-02-22T16:22:27.898Z,10.00
2023-02-22T16:25:11.816Z,9.90
2023-02-22T16:27:47.268Z,9.80
2023-02-22T16:30:24.497Z,9.70
2023-02-22T16:32:52.437Z,9.70
2023-02-22T16:35:19.073Z,9.60
2023-02-22T16:37:47.158Z,9.50
2023-02-22T16:40:22.345Z,9.50
2023-02-22T16:42:48.964Z,9.40
2023-02-22T16:45:16.398Z,9.30
2023-02-22T16:47:43.251Z,9.20
2023-02-22T16:50:09.844Z,9.10
2023-02-22T16:52:38.901Z,9.00
2023-02-22T16:55:06.330Z,9.00
2023-02-22T16:57:32.901Z,8.90
2023-02-22T16:59:59.404Z,8.80
2023-02-22T17:02:28.100Z,8.70
2023-02-22T17:04:54.704Z,8.60
2023-02-22T17:07:29.741Z,8.50
2023-02-22T17:09:59.356Z,8.40
2023-02-22T17:12:27.229Z,8.40
2023-02-22T17:14:53.731Z,8.50
2023-02-22T17:17:20.338Z,8.40
2023-02-22T17:19:46.845Z,8.30
2023-02-22T17:22:17.244Z,8.30
2023-02-22T17:24:43.729Z,8.30
2023-02-22T17:27:10.307Z,8.20
2023-02-22T17:29:36.849Z,8.30
2023-02-22T17:32:03.635Z,8.20
2023-02-22T17:34:30.142Z,8.10
2023-02-22T17:36:56.683Z,8.00
2023-02-22T17:39:23.257Z,7.90
2023-02-22T17:41:55.002Z,7.90
2023-02-22T17:44:21.517Z,7.80
2023-02-22T17:46:48.021Z,7.80
2023-02-22T17:49:15.334Z,7.80
2023-02-22T17:51:42.440Z,7.80
2023-02-22T17:54:10.366Z,7.70
2023-02-22T17:56:36.987Z,7.70
2023-02-22T17:59:03.526Z,7.70
2023-02-22T18:01:31.281Z,7.60
2023-02-22T18:03:59.474Z,7.60
2023-02-22T18:06:27.153Z,7.50
2023-02-22T18:08:56.430Z,7.50
2023-02-22T18:11:26.193Z,7.50
2023-02-22T18:13:54.173Z,7.50
2023-02-22T18:16:21.081Z,7.50
2023-02-22T18:18:49.476Z,7.40
2023-02-22T18:21:16.274Z,7.40
2023-02-22T18:23:44.687Z,7.40
2023-02-22T18:26:18.458Z,7.30
2023-02-22T18:28:45.013Z,7.30
2023-02-22T18:31:16.069Z,7.20
2023-02-22T18:33:43.253Z,7.20
2023-02-22T18:36:11.410Z,7.20
2023-02-22T18:38:42.691Z,7.10
2023-02-22T18:41:16.085Z,7.10
2023-02-22T18:43:42.773Z,7.00
2023-02-22T18:46:10.417Z,7.00
2023-02-22T18:48:37.045Z,7.00
2023-02-22T18:51:05.632Z,7.00
2023-02-22T18:53:33.054Z,7.00
2023-02-22T18:56:03.552Z,6.90
2023-02-22T18:58:32.734Z,6.90
2023-02-22T19:01:02.616Z,6.90
2023-02-22T19:03:29.689Z,6.90
2023-02-22T19:06:00.775Z,6.90
2023-02-22T19:08:27.268Z,6.80
2023-02-22T19:10:53.795Z,6.80
2023-02-22T19:13:21.074Z,6.80
2023-02-22T19:15:48.908Z,6.80
2023-02-22T19:18:15.455Z,6.70
2023-02-22T19:20:41.967Z,6.70
2023-02-22T19:23:10.237Z,6.70
2023-02-22T19:25:40.339Z,6.60
2023-02-22T19:28:06.882Z,6.60
2023-02-22T19:30:33.412Z,6.60
2023-02-22T19:33:02.528Z,6.50
2023-02-22T19:35:30.017Z,6.50
2023-02-22T19:37:56.528Z,6.40
2023-02-22T19:40:27.907Z,6.40
2023-02-22T19:43:00.884Z,6.40
2023-02-22T19:45:33.900Z,6.40
2023-02-22T19:48:01.166Z,6.30
2023-02-22T19:50:27.693Z,6.30
2023-02-22T19:52:55.866Z,6.30
2023-02-22T19:55:22.370Z,6.20
2023-02-22T19:57:49.973Z,6.20
2023-02-22T20:00:24.218Z,6.20
2023-02-22T20:02:57.352Z,6.10
2023-02-22T20:05:23.846Z,6.10
2023-02-22T20:07:51.777Z,6.10
2023-02-22T20:10:19.015Z,6.10
2023-02-22T20:12:45.516Z,6.10
2023-02-22T20:15:12.994Z,6.10
2023-02-22T20:17:39.527Z,6.00
2023-02-22T20:20:06.809Z,6.00
2023-02-22T20:22:33.343Z,6.00
2023-02-22T20:24:59.834Z,6.00
2023-02-22T20:27:26.412Z,6.00
2023-02-22T20:29:52.978Z,5.90
2023-02-22T20:32:19.701Z,5.90
2023-02-22T20:34:46.822Z,5.90
2023-02-22T20:37:14.506Z,5.90
2023-02-22T20:39:42.069Z,5.90
2023-02-22T20:42:08.704Z,5.90
2023-02-22T20:44:35.315Z,5.90
2023-02-22T20:47:03.395Z,5.90
2023-02-22T20:49:29.957Z,5.90
2023-02-22T20:51:56.481Z,5.90
2023-02-22T20:54:22.983Z,5.90
2023-02-22T20:56:52.668Z,5.90
2023-02-22T20:59:19.769Z,5.80
2023-02-22T21:01:50.105Z,5.80
2023-02-22T21:04:17.502Z,5.80
2023-02-22T21:06:44.602Z,5.80
2023-02-22T21:09:12.556Z,5.90
2023-02-22T21:11:39.980Z,5.80
2023-02-22T21:14:06.534Z,5.80
2023-02-22T21:16:34.488Z,5.80
2023-02-22T21:19:03.432Z,5.80
2023-02-22T21:21:30.828Z,5.80
2023-02-22T21:24:01.498Z,5.80
2023-02-22T21:26:29.618Z,5.70
2023-02-22T21:28:58.120Z,5.70
2023-02-22T21:31:25.229Z,5.70
2023-02-22T21:33:53.006Z,5.60
2023-02-22T21:36:20.284Z,5.60
2023-02-22T21:38:49.276Z,5.60
2023-02-22T21:41:16.931Z,5.60
2023-02-22T21:43:43.929Z,5.60
2023-02-22T21:46:10.915Z,5.50
2023-02-22T21:48:48.000Z,5.50
2023-02-22T21:51:16.772Z,5.50
2023-02-22T21:53:47.440Z,5.50
2023-02-22T21:56:15.249Z,5.50
2023-02-22T21:58:58.934Z,5.50
2023-02-22T22:01:29.162Z,5.60
2023-02-22T22:03:56.423Z,5.70
2023-02-22T22:06:22.913Z,5.80
2023-02-22T22:08:50.372Z,5.70
2023-02-22T22:11:17.950Z,5.70
2023-02-22T22:13:44.680Z,5.70
2023-02-22T22:16:16.477Z,5.70
2023-02-22T22:18:44.109Z,5.70
2023-02-22T22:21:14.038Z,5.70
2023-02-22T22:23:41.295Z,5.70
2023-02-22T22:26:11.874Z,5.70
2023-02-22T22:28:42.592Z,5.80
2023-02-22T22:31:09.791Z,5.80
2023-02-22T22:33:36.870Z,5.80
2023-02-22T22:36:06.379Z,5.80
2023-02-22T22:38:33.434Z,5.80
2023-02-22T22:41:01.118Z,5.70
2023-02-22T22:43:31.461Z,5.80
2023-02-22T22:45:59.360Z,5.80
2023-02-22T22:48:26.609Z,5.80
2023-02-22T22:50:59.375Z,5.80
2023-02-22T22:53:25.865Z,5.80
2023-02-22T22:55:52.862Z,5.70
2023-02-22T22:58:19.631Z,5.70
2023-02-22T23:00:46.258Z,5.70
2023-02-22T23:03:16.464Z,5.60
2023-02-22T23:05:43.230Z,5.70
2023-02-22T23:08:10.925Z,5.80
2023-02-22T23:10:40.939Z,5.70
2023-02-22T23:13:12.182Z,5.60
2023-02-22T23:15:43.020Z,5.60
2023-02-22T23:18:09.899Z,5.60
2023-02-22T23:20:39.475Z,5.50
2023-02-22T23:23:06.115Z,5.50
2023-02-22T23:25:33.518Z,5.50
2023-02-22T23:28:00.203Z,5.50
2023-02-22T23:30:26.940Z,5.50
2023-02-22T23:32:53.477Z,5.50
2023-02-22T23:35:20.040Z,5.50
2023-02-22T23:37:52.831Z,5.40
2023-02-22T23:40:19.423Z,5.40
2023-02-22T23:42:49.993Z,5.40
2023-02-22T23:45:22.817Z,5.40
2023-02-22T23:47:50.536Z,5.30
2023-02-22T23:50:19.073Z,5.40
2023-02-22T23:52:46.189Z,5.30
2023-02-22T23:55:12.794Z,5.40
2023-02-22T23:57:43.061Z,5.40
